createdAt,value
2022-11-27T00:01:12.820Z,7.30
2022-11-27T00:03:40.937Z,6.85
2022-11-27T00:06:08.859Z,7.03
2022-11-27T00:08:36.191Z,9.63
2022-11-27T00:11:07.534Z,8.45
2022-11-27T00:13:35.291Z,8.68
2022-11-27T00:16:02.692Z,8.90
2022-11-27T00:18:30.406Z,8.13
2022-11-27T00:21:02.629Z,7.35
2022-11-27T00:23:29.902Z,7.35
2022-11-27T00:25:57.216Z,7.53
2022-11-27T00:28:24.923Z,6.72
2022-11-27T00:30:52.374Z,6.68
2022-11-27T00:33:19.761Z,8.13
2022-11-27T00:35:47.081Z,8.15
2022-11-27T00:38:14.456Z,6.82
2022-11-27T00:40:41.893Z,8.55
2022-11-27T00:43:09.129Z,6.35
2022-11-27T00:45:36.450Z,5.63
2022-11-27T00:48:03.775Z,7.80
2022-11-27T00:50:32.221Z,8.15
2022-11-27T00:53:02.604Z,6.38
2022-11-27T00:55:29.911Z,6.57
2022-11-27T00:57:57.212Z,7.25
2022-11-27T01:00:25.766Z,6.43
2022-11-27T01:02:53.184Z,6.18
2022-11-27T01:05:20.479Z,5.50
2022-11-27T01:07:47.806Z,7.40
2022-11-27T01:10:15.228Z,7.07
2022-11-27T01:12:42.536Z,6.47
2022-11-27T01:15:10.350Z,5.50
2022-11-27T01:17:37.690Z,7.32
2022-11-27T01:20:05.175Z,5.95
2022-11-27T01:22:33.696Z,7.78
2022-11-27T01:25:04.078Z,6.05
2022-11-27T01:27:31.354Z,5.72
2022-11-27T01:29:58.748Z,6.55
2022-11-27T01:32:26.074Z,6.85
2022-11-27T01:34:54.570Z,5.65
2022-11-27T01:37:21.973Z,6.60
2022-11-27T01:39:49.279Z,5.93
2022-11-27T01:42:16.652Z,6.30
2022-11-27T01:44:49.053Z,6.57
2022-11-27T01:47:19.065Z,7.35
2022-11-27T01:49:54.106Z,7.30
2022-11-27T01:52:33.216Z,5.72
2022-11-27T01:55:02.418Z,5.95
2022-11-27T01:57:31.995Z,7.55
2022-11-27T02:00:00.674Z,7.55
2022-11-27T02:02:28.471Z,4.70
2022-11-27T02:04:58.621Z,7.10
2022-11-27T02:07:28.748Z,5.35
2022-11-27T02:09:56.267Z,5.25
2022-11-27T02:12:35.899Z,6.43
2022-11-27T02:15:08.482Z,5.22
2022-11-27T02:17:38.868Z,5.97
2022-11-27T02:20:24.864Z,5.07
2022-11-27T02:23:18.278Z,6.00
2022-11-27T02:26:07.158Z,4.82
2022-11-27T02:28:34.460Z,5.75
2022-11-27T02:31:09.103Z,4.65
2022-11-27T02:33:39.681Z,6.13
2022-11-27T02:36:09.821Z,5.32
2022-11-27T02:38:42.330Z,5.63
2022-11-27T02:41:15.027Z,6.03
2022-11-27T02:43:45.832Z,5.40
2022-11-27T02:46:14.309Z,4.20
2022-11-27T02:48:44.752Z,4.68
2022-11-27T02:51:12.949Z,5.40
2022-11-27T02:53:44.731Z,4.55
2022-11-27T02:58:39.362Z,6.43
2022-11-27T03:01:07.907Z,5.47
2022-11-27T03:03:37.085Z,4.60
2022-11-27T03:06:08.442Z,5.05
2022-11-27T03:08:55.000Z,4.32
2022-11-27T03:11:22.525Z,5.35
2022-11-27T03:13:54.171Z,4.63
2022-11-27T03:16:34.043Z,4.50
2022-11-27T03:19:19.811Z,7.45
2022-11-27T03:21:53.588Z,4.00
2022-11-27T03:24:21.080Z,5.22
2022-11-27T03:26:48.442Z,6.20
2022-11-27T03:29:21.314Z,4.88
2022-11-27T03:31:49.134Z,4.72
2022-11-27T03:34:16.495Z,5.07
2022-11-27T03:36:46.656Z,4.45
2022-11-27T03:39:15.946Z,5.00
2022-11-27T03:41:43.231Z,4.90
2022-11-27T03:44:18.882Z,5.15
2022-11-27T03:46:49.139Z,5.30
2022-11-27T03:49:32.098Z,6.43
2022-11-27T03:52:03.096Z,5.28
2022-11-27T03:54:43.883Z,5.18
2022-11-27T03:57:22.694Z,5.35
2022-11-27T03:59:51.306Z,5.10
2022-11-27T04:02:38.589Z,5.05
2022-11-27T04:05:06.026Z,5.82
2022-11-27T04:07:33.426Z,5.57
2022-11-27T04:10:04.443Z,5.57
2022-11-27T04:12:31.821Z,4.95
2022-11-27T04:14:59.282Z,4.28
2022-11-27T04:17:27.021Z,5.38
2022-11-27T04:19:56.781Z,4.93
2022-11-27T04:22:24.115Z,5.03
2022-11-27T04:24:51.959Z,5.15
2022-11-27T04:27:19.250Z,5.47
2022-11-27T04:29:46.571Z,5.03
2022-11-27T04:32:13.977Z,6.07
2022-11-27T04:34:41.612Z,4.60
2022-11-27T04:37:09.067Z,5.13
2022-11-27T04:39:36.340Z,5.32
2022-11-27T04:42:03.738Z,4.65
2022-11-27T04:44:31.054Z,4.18
2022-11-27T04:46:58.342Z,4.82
2022-11-27T04:49:25.678Z,5.47
2022-11-27T04:51:55.063Z,5.53
2022-11-27T04:54:22.517Z,6.60
2022-11-27T04:56:49.860Z,4.22
2022-11-27T04:59:17.134Z,5.18
2022-11-27T05:01:46.929Z,6.05
2022-11-27T05:04:14.422Z,5.78
2022-11-27T05:06:41.700Z,4.88
2022-11-27T05:09:09.091Z,4.07
2022-11-27T05:11:36.504Z,5.05
2022-11-27T05:14:16.835Z,4.88
2022-11-27T05:16:48.493Z,4.75
2022-11-27T05:19:17.004Z,4.72
2022-11-27T05:21:45.093Z,4.78
2022-11-27T05:24:12.409Z,6.38
2022-11-27T05:26:40.436Z,4.60
2022-11-27T05:29:08.095Z,4.18
2022-11-27T05:31:35.565Z,5.10
2022-11-27T05:34:03.168Z,5.45
2022-11-27T05:36:30.764Z,4.80
2022-11-27T05:38:58.059Z,4.53
2022-11-27T05:41:25.295Z,4.90
2022-11-27T05:43:52.628Z,4.65
2022-11-27T05:46:21.035Z,5.38
2022-11-27T05:48:48.473Z,5.20
2022-11-27T05:51:15.963Z,4.18
2022-11-27T05:53:43.461Z,5.72
2022-11-27T05:56:12.039Z,3.85
2022-11-27T05:58:39.991Z,4.88
2022-11-27T06:01:07.477Z,4.13
2022-11-27T06:03:35.169Z,5.60
2022-11-27T06:06:09.399Z,4.75
2022-11-27T06:08:40.398Z,4.65
2022-11-27T06:11:08.773Z,4.90
2022-11-27T06:13:36.206Z,5.05
2022-11-27T06:16:07.705Z,4.20
2022-11-27T06:18:35.147Z,4.70
2022-11-27T06:21:02.370Z,4.30
2022-11-27T06:23:29.926Z,4.25
2022-11-27T06:25:57.154Z,5.20
2022-11-27T06:28:24.385Z,4.15
2022-11-27T06:30:51.608Z,4.40
2022-11-27T06:33:18.859Z,5.95
2022-11-27T06:35:46.092Z,4.75
2022-11-27T06:38:13.467Z,5.43
2022-11-27T06:40:40.694Z,4.47
2022-11-27T06:43:07.963Z,4.57
2022-11-27T06:45:35.318Z,5.65
2022-11-27T06:48:02.581Z,4.35
2022-11-27T06:50:30.102Z,4.28
2022-11-27T06:52:57.319Z,6.05
2022-11-27T06:55:24.572Z,4.50
2022-11-27T06:57:51.922Z,5.65
2022-11-27T07:00:19.652Z,4.95
2022-11-27T07:02:46.920Z,5.53
2022-11-27T07:05:14.144Z,4.95
2022-11-27T07:07:43.918Z,4.63
2022-11-27T07:10:11.497Z,3.80
2022-11-27T07:12:38.717Z,6.10
2022-11-27T07:15:06.175Z,5.75
2022-11-27T07:17:33.393Z,4.63
2022-11-27T07:20:00.618Z,4.40
2022-11-27T07:22:27.847Z,4.63
2022-11-27T07:24:55.461Z,4.18
2022-11-27T07:27:22.810Z,4.63
2022-11-27T07:29:49.959Z,3.70
2022-11-27T07:32:17.244Z,5.03
2022-11-27T07:34:44.545Z,4.13
2022-11-27T07:37:11.789Z,4.45
2022-11-27T07:40:01.494Z,5.00
2022-11-27T07:42:41.675Z,4.80
2022-11-27T07:45:10.478Z,4.82
2022-11-27T07:47:38.177Z,4.63
2022-11-27T07:50:07.328Z,4.20
2022-11-27T07:52:41.920Z,4.03
2022-11-27T07:55:09.738Z,5.80
2022-11-27T07:57:37.045Z,4.32
2022-11-27T08:00:05.031Z,4.63
2022-11-27T08:02:32.555Z,6.97
2022-11-27T08:04:59.908Z,5.57
2022-11-27T08:07:30.972Z,5.00
2022-11-27T08:09:58.328Z,5.15
2022-11-27T08:12:26.264Z,4.75
2022-11-27T08:14:53.939Z,5.75
2022-11-27T08:17:21.256Z,5.28
2022-11-27T08:19:48.584Z,5.07
2022-11-27T08:22:16.882Z,4.72
2022-11-27T08:24:44.185Z,4.65
2022-11-27T08:27:11.860Z,4.82
2022-11-27T08:29:41.968Z,4.93
2022-11-27T08:32:09.424Z,5.10
2022-11-27T08:34:37.461Z,6.40
2022-11-27T08:37:05.494Z,4.57
2022-11-27T08:39:32.793Z,5.00
2022-11-27T08:42:00.370Z,5.32
2022-11-27T08:44:27.611Z,4.80
2022-11-27T08:46:54.899Z,5.97
2022-11-27T08:49:22.305Z,4.97
2022-11-27T08:51:49.566Z,5.55
2022-11-27T08:54:16.908Z,5.20
2022-11-27T08:56:44.190Z,6.32
2022-11-27T08:59:11.474Z,5.10
2022-11-27T09:01:38.860Z,5.63
2022-11-27T09:04:06.207Z,4.97
2022-11-27T09:06:34.938Z,5.53
2022-11-27T09:09:02.895Z,5.43
2022-11-27T09:11:31.621Z,5.45
2022-11-27T09:14:02.274Z,3.60
2022-11-27T09:16:30.550Z,7.28
2022-11-27T09:18:58.326Z,5.03
2022-11-27T09:21:30.551Z,5.55
2022-11-27T09:23:59.666Z,4.72
2022-11-27T09:26:27.595Z,5.88
2022-11-27T09:28:55.273Z,5.63
2022-11-27T09:31:22.982Z,7.10
2022-11-27T09:33:50.482Z,5.25
2022-11-27T09:36:19.273Z,5.80
2022-11-27T09:38:46.697Z,7.32
2022-11-27T09:41:19.780Z,5.70
2022-11-27T09:43:59.584Z,5.70
2022-11-27T09:46:32.721Z,5.72
2022-11-27T09:49:01.461Z,6.60
2022-11-27T09:51:28.689Z,5.03
2022-11-27T09:54:08.765Z,5.47
2022-11-27T09:56:37.005Z,6.50
2022-11-27T09:59:09.333Z,6.18
2022-11-27T10:01:45.324Z,5.28
2022-11-27T10:04:18.394Z,5.93
2022-11-27T10:06:51.611Z,6.22
2022-11-27T10:09:28.002Z,6.70
2022-11-27T10:12:04.417Z,6.18
2022-11-27T10:14:31.695Z,7.82
2022-11-27T10:17:12.266Z,5.75
2022-11-27T10:19:58.441Z,6.53
2022-11-27T10:22:29.419Z,6.50
2022-11-27T10:24:56.611Z,6.95
2022-11-27T10:27:31.658Z,5.30
2022-11-27T10:30:00.072Z,7.18
2022-11-27T10:35:21.525Z,6.10
2022-11-27T10:37:48.773Z,6.28
2022-11-27T10:40:21.895Z,6.35
2022-11-27T10:42:58.132Z,7.65
2022-11-27T10:45:30.230Z,5.05
2022-11-27T10:47:57.538Z,6.28
2022-11-27T10:50:24.826Z,8.00
2022-11-27T10:52:57.647Z,6.32
2022-11-27T10:55:48.224Z,5.03
2022-11-27T10:58:21.511Z,6.70
2022-11-27T11:00:48.867Z,5.72
2022-11-27T11:03:18.961Z,6.13
2022-11-27T11:06:19.079Z,9.65
2022-11-27T11:08:44.145Z,7.28
2022-11-27T11:11:11.768Z,7.25
2022-11-27T11:13:41.998Z,6.68
2022-11-27T11:16:14.685Z,5.78
2022-11-27T11:18:46.757Z,7.38
2022-11-27T11:21:17.105Z,6.35
2022-11-27T11:23:47.022Z,6.03
2022-11-27T11:26:24.641Z,7.63
2022-11-27T11:28:54.239Z,7.07
2022-11-27T11:31:29.419Z,6.78
2022-11-27T11:34:04.520Z,7.78
2022-11-27T11:36:31.869Z,7.07
2022-11-27T11:38:59.507Z,6.85
2022-11-27T11:41:36.951Z,6.78
2022-11-27T11:44:04.719Z,6.25
2022-11-27T11:46:33.762Z,5.75
2022-11-27T11:49:08.522Z,7.03
2022-11-27T11:51:54.689Z,5.90
2022-11-27T11:54:24.962Z,8.05
2022-11-27T11:56:53.063Z,6.93
2022-11-27T11:59:23.568Z,6.75
2022-11-27T12:01:56.200Z,7.55
2022-11-27T12:04:42.119Z,7.45
2022-11-27T12:07:17.569Z,6.30
2022-11-27T12:09:51.097Z,6.35
2022-11-27T12:12:21.163Z,7.55
2022-11-27T12:14:51.225Z,7.20
2022-11-27T12:17:27.489Z,8.77
2022-11-27T12:19:54.815Z,11.63
2022-11-27T12:22:37.710Z,7.63
2022-11-27T12:25:11.102Z,8.57
2022-11-27T12:27:57.060Z,8.55
2022-11-27T12:30:27.618Z,9.88
2022-11-27T12:32:54.814Z,7.53
2022-11-27T12:35:32.842Z,9.48
2022-11-27T12:38:18.882Z,7.45
2022-11-27T12:41:05.108Z,4.85
2022-11-27T12:43:36.612Z,6.25
2022-11-27T12:46:16.289Z,8.57
2022-11-27T12:48:49.479Z,7.25
2022-11-27T12:51:19.305Z,7.50
2022-11-27T12:54:01.708Z,7.47
2022-11-27T12:56:35.833Z,7.45
2022-11-27T12:59:05.067Z,6.70
2022-11-27T13:01:40.097Z,6.75
2022-11-27T13:04:15.670Z,7.35
2022-11-27T13:07:06.273Z,5.88
2022-11-27T13:09:42.000Z,6.60
2022-11-27T13:12:11.495Z,6.90
2022-11-27T13:14:39.834Z,8.27
2022-11-27T13:17:11.735Z,7.25
2022-11-27T13:19:42.759Z,7.13
2022-11-27T13:22:12.563Z,7.43
2022-11-27T13:24:48.191Z,7.50
2022-11-27T13:27:17.698Z,7.47
2022-11-27T13:29:56.410Z,6.90
2022-11-27T13:32:28.829Z,6.20
2022-11-27T13:34:57.370Z,7.07
2022-11-27T13:37:24.613Z,7.45
2022-11-27T13:39:59.115Z,8.38
2022-11-27T13:42:29.267Z,6.75
2022-11-27T13:44:57.854Z,7.38
2022-11-27T13:47:26.629Z,6.68
2022-11-27T13:50:09.643Z,6.68
2022-11-27T13:52:37.943Z,8.10
2022-11-27T13:55:10.060Z,6.93
2022-11-27T13:57:38.403Z,8.02
2022-11-27T14:00:10.352Z,6.10
2022-11-27T14:02:56.140Z,7.22
2022-11-27T14:05:35.589Z,7.55
2022-11-27T14:08:02.979Z,6.47
2022-11-27T14:10:32.081Z,8.07
2022-11-27T14:13:02.672Z,7.90
2022-11-27T14:15:31.560Z,6.65
2022-11-27T14:18:10.909Z,8.65
2022-11-27T14:20:45.807Z,8.10
2022-11-27T14:23:13.799Z,6.80
2022-11-27T14:25:41.696Z,6.38
2022-11-27T14:28:27.630Z,6.80
2022-11-27T14:30:56.974Z,7.30
2022-11-27T14:33:31.439Z,6.85
2022-11-27T14:36:20.355Z,6.95
2022-11-27T14:38:49.361Z,8.02
2022-11-27T14:41:18.244Z,8.73
2022-11-27T14:43:45.561Z,6.50
2022-11-27T14:46:17.761Z,7.85
2022-11-27T14:48:46.600Z,6.25
2022-11-27T14:51:18.637Z,7.55
2022-11-27T14:53:46.858Z,6.85
2022-11-27T14:56:14.960Z,7.45
2022-11-27T14:58:52.945Z,6.43
2022-11-27T15:01:27.714Z,6.28
2022-11-27T15:04:02.634Z,7.80
2022-11-27T15:06:37.822Z,6.70
2022-11-27T15:09:30.235Z,6.97
2022-11-27T15:12:04.753Z,6.68
2022-11-27T15:14:33.259Z,7.05
2022-11-27T15:17:00.539Z,8.57
2022-11-27T15:19:37.782Z,6.93
2022-11-27T15:22:05.778Z,9.27
2022-11-27T15:24:36.934Z,7.18
2022-11-27T15:27:17.023Z,8.63
2022-11-27T15:30:01.072Z,8.02
2022-11-27T15:32:35.592Z,9.13
2022-11-27T15:35:12.935Z,9.10
2022-11-27T15:37:40.479Z,7.63
2022-11-27T15:40:22.309Z,9.57
2022-11-27T15:42:49.691Z,8.77
2022-11-27T15:45:17.390Z,8.60
2022-11-27T15:47:44.744Z,7.97
2022-11-27T15:50:18.037Z,8.68
2022-11-27T15:52:45.341Z,8.10
2022-11-27T15:55:16.025Z,8.27
2022-11-27T15:57:43.564Z,8.48
2022-11-27T16:00:11.482Z,10.80
2022-11-27T16:02:39.130Z,8.02
2022-11-27T16:05:07.070Z,9.32
2022-11-27T16:07:34.521Z,8.13
2022-11-27T16:10:01.842Z,9.73
2022-11-27T16:12:29.247Z,9.82
2022-11-27T16:14:56.490Z,9.50
2022-11-27T16:17:23.802Z,9.00
2022-11-27T16:19:51.192Z,9.75
2022-11-27T16:22:19.075Z,10.38
2022-11-27T16:24:46.303Z,11.93
2022-11-27T16:27:13.687Z,10.55
2022-11-27T16:29:41.146Z,14.38
2022-11-27T16:32:08.785Z,13.55
2022-11-27T16:34:36.371Z,10.60
2022-11-27T16:37:04.532Z,11.07
2022-11-27T16:39:32.399Z,11.23
2022-11-27T16:41:59.924Z,10.90
2022-11-27T16:44:27.745Z,9.80
2022-11-27T16:46:55.498Z,10.30
2022-11-27T16:49:23.502Z,10.23
2022-11-27T16:51:50.801Z,10.25
2022-11-27T16:54:19.200Z,10.45
2022-11-27T16:56:46.929Z,10.40
2022-11-27T16:59:15.008Z,8.77
2022-11-27T17:01:43.592Z,10.05
2022-11-27T17:04:15.746Z,11.02
2022-11-27T17:06:44.209Z,11.13
2022-11-27T17:09:11.513Z,11.05
2022-11-27T17:11:41.925Z,12.32
2022-11-27T17:14:09.749Z,10.52
2022-11-27T17:16:39.928Z,10.38
2022-11-27T17:19:09.847Z,9.55
2022-11-27T17:21:37.221Z,10.20
2022-11-27T17:24:10.116Z,11.02
2022-11-27T17:26:42.502Z,11.43
2022-11-27T17:29:10.320Z,11.32
2022-11-27T17:31:38.868Z,13.00
2022-11-27T17:34:06.515Z,11.30
2022-11-27T17:36:37.072Z,10.43
2022-11-27T17:39:05.490Z,11.18
2022-11-27T17:41:32.764Z,10.25
2022-11-27T17:44:00.397Z,11.95
2022-11-27T17:46:28.789Z,12.45
2022-11-27T17:49:00.446Z,11.23
2022-11-27T17:51:30.013Z,11.57
2022-11-27T17:56:25.324Z,11.27
2022-11-27T17:58:53.254Z,10.27
2022-11-27T18:01:21.957Z,10.52
2022-11-27T18:03:50.805Z,9.90
2022-11-27T18:06:19.733Z,12.80
2022-11-27T18:08:48.096Z,12.07
2022-11-27T18:11:17.343Z,13.13
2022-11-27T18:13:45.974Z,12.43
2022-11-27T18:16:16.464Z,12.73
2022-11-27T18:18:44.024Z,13.95
2022-11-27T18:21:19.009Z,13.85
2022-11-27T18:24:20.759Z,10.90
2022-11-27T18:29:22.927Z,10.57
2022-11-27T18:31:51.845Z,12.05
2022-11-27T18:34:19.133Z,11.63
2022-11-27T18:36:46.486Z,10.82
2022-11-27T18:39:13.920Z,12.30
2022-11-27T18:41:41.236Z,82.68
2022-11-27T18:44:09.106Z,21.20
2022-11-27T18:46:36.579Z,11.65
2022-11-27T18:49:03.923Z,12.10
2022-11-27T18:51:31.204Z,11.68
2022-11-27T18:53:58.638Z,12.07
2022-11-27T18:56:27.533Z,10.10
2022-11-27T18:58:55.154Z,10.73
2022-11-27T19:01:24.319Z,11.73
2022-11-27T19:06:20.232Z,11.40
2022-11-27T19:08:48.614Z,10.30
2022-11-27T19:11:20.827Z,11.60
2022-11-27T19:13:48.678Z,12.18
2022-11-27T19:16:18.477Z,13.00
2022-11-27T19:18:46.492Z,13.07
2022-11-27T19:21:15.280Z,13.52
2022-11-27T19:23:42.934Z,12.48
2022-11-27T19:26:11.483Z,12.10
2022-11-27T19:28:38.734Z,11.93
2022-11-27T19:31:07.338Z,13.35
2022-11-27T19:33:36.159Z,13.40
2022-11-27T19:36:11.258Z,11.88
2022-11-27T19:38:38.996Z,12.02
2022-11-27T19:41:14.046Z,13.85
2022-11-27T19:43:41.602Z,14.52
2022-11-27T19:46:16.249Z,14.85
2022-11-27T19:48:43.629Z,13.32
2022-11-27T19:51:11.444Z,12.27
2022-11-27T19:53:38.745Z,13.65
2022-11-27T19:56:06.207Z,12.10
2022-11-27T19:58:34.428Z,12.48
2022-11-27T20:01:05.580Z,12.18
2022-11-27T20:03:32.939Z,13.05
2022-11-27T20:06:07.439Z,11.55
2022-11-27T20:08:35.071Z,15.63
2022-11-27T20:11:03.072Z,19.20
2022-11-27T20:13:30.312Z,12.40
2022-11-27T20:15:57.777Z,14.32
2022-11-27T20:18:28.219Z,12.23
2022-11-27T20:21:05.912Z,10.57
2022-11-27T20:23:33.357Z,11.43
2022-11-27T20:26:01.699Z,11.77
2022-11-27T20:28:29.049Z,12.80
2022-11-27T20:30:57.373Z,13.45
2022-11-27T20:33:26.769Z,11.40
2022-11-27T20:35:54.575Z,13.30
2022-11-27T20:38:22.317Z,14.40
2022-11-27T20:40:50.210Z,14.25
2022-11-27T20:43:19.542Z,14.10
2022-11-27T20:45:46.916Z,14.27
2022-11-27T20:48:14.203Z,15.18
2022-11-27T20:50:41.763Z,14.82
2022-11-27T20:53:09.009Z,14.43
2022-11-27T20:55:36.491Z,14.07
2022-11-27T20:58:03.734Z,14.80
2022-11-27T21:00:31.145Z,15.15
2022-11-27T21:03:00.039Z,13.98
2022-11-27T21:05:27.534Z,14.57
2022-11-27T21:07:57.355Z,13.45
2022-11-27T21:12:55.634Z,14.73
2022-11-27T21:15:22.962Z,16.17
2022-11-27T21:17:50.230Z,15.68
2022-11-27T21:20:21.408Z,13.57
2022-11-27T21:22:48.595Z,14.82
2022-11-27T21:25:20.394Z,13.30
2022-11-27T21:27:50.430Z,14.73
2022-11-27T21:30:19.108Z,13.82
2022-11-27T21:32:46.388Z,17.13
2022-11-27T21:35:13.703Z,14.98
2022-11-27T21:37:41.386Z,15.13
2022-11-27T21:40:08.830Z,15.38
2022-11-27T21:42:39.273Z,14.32
2022-11-27T21:45:10.486Z,15.27
2022-11-27T21:47:38.060Z,14.38
2022-11-27T21:50:05.940Z,17.05
2022-11-27T21:52:33.944Z,15.95
2022-11-27T21:55:02.356Z,14.80
2022-11-27T21:57:29.675Z,14.40
2022-11-27T21:59:57.003Z,15.60
2022-11-27T22:02:24.295Z,15.70
2022-11-27T22:04:51.686Z,17.38
2022-11-27T22:07:18.995Z,14.82
2022-11-27T22:09:46.417Z,16.00
2022-11-27T22:12:13.687Z,16.15
2022-11-27T22:14:41.481Z,16.13
2022-11-27T22:17:09.040Z,14.10
2022-11-27T22:19:42.243Z,15.57
2022-11-27T22:22:09.516Z,16.23
2022-11-27T22:24:36.798Z,17.00
2022-11-27T22:27:05.072Z,16.30
2022-11-27T22:29:32.524Z,16.55
2022-11-27T22:31:59.823Z,15.80
2022-11-27T22:34:27.355Z,16.48
2022-11-27T22:36:55.960Z,16.08
2022-11-27T22:39:23.358Z,15.82
2022-11-27T22:41:50.665Z,17.27
2022-11-27T22:44:21.045Z,16.98
2022-11-27T22:46:49.880Z,16.85
2022-11-27T22:49:18.513Z,16.88
2022-11-27T22:51:46.112Z,16.25
2022-11-27T22:54:17.195Z,17.10
2022-11-27T22:56:45.892Z,16.75
2022-11-27T23:02:02.448Z,16.25
2022-11-27T23:04:29.976Z,17.55
2022-11-27T23:06:58.366Z,14.50
2022-11-27T23:09:25.658Z,16.75
2022-11-27T23:11:53.069Z,17.65
2022-11-27T23:14:20.447Z,18.00
2022-11-27T23:16:47.788Z,16.90
2022-11-27T23:19:15.101Z,16.42
2022-11-27T23:21:42.644Z,17.42
2022-11-27T23:24:13.730Z,16.65
2022-11-27T23:26:40.964Z,16.17
2022-11-27T23:29:08.596Z,15.45
2022-11-27T23:31:36.467Z,16.38
2022-11-27T23:34:07.282Z,17.00
2022-11-27T23:36:34.730Z,15.05
2022-11-27T23:39:02.610Z,14.98
2022-11-27T23:41:29.945Z,17.25
2022-11-27T23:43:58.042Z,14.63
2022-11-27T23:46:26.972Z,14.30
2022-11-27T23:48:57.257Z,12.43
2022-11-27T23:51:26.537Z,14.40
2022-11-27T23:53:54.013Z,15.65
2022-11-27T23:56:22.420Z,16.08
2022-11-27T23:58:49.913Z,15.02
